Time;durP1;ratioP1;P1;durP2;ratioP2;P2;SDS_P1;SDS_P2;PMS_P1;PMS_P2;Temp;Humidity;BMP_temperature;BMP_pressure;BME280_temperature;BME280_humidity;BME280_pressure;Samples;Min_cycle;Max_cycle;Signal;HPM_P1;HPM_P2
2022/06/24 00:00:17;;;;;;;3.08;2.80;;;;;;;15.81;61.72;100433.66;1760243;80;21476;-76
2022/06/24 00:02:50;;;;;;;3.40;2.60;;;;;;;15.75;61.80;100435.81;1768067;80;20982;-82
2022/06/24 00:05:18;;;;;;;6.03;3.00;;;;;;;15.70;61.96;100440.51;1780337;80;21046;-82
2022/06/24 00:07:51;;;;;;;4.37;2.83;;;;;;;15.66;62.16;100434.53;1781179;80;21038;-76
2022/06/24 00:10:26;;;;;;;2.98;2.67;;;;;;;15.64;62.43;100438.19;1765964;80;21514;-76
2022/06/24 00:12:54;;;;;;;3.58;2.75;;;;;;;15.58;62.61;100434.95;1768346;80;21029;-76
2022/06/24 00:15:26;;;;;;;3.40;2.75;;;;;;;15.56;62.95;100432.02;1780949;80;21954;-76
2022/06/24 00:17:53;;;;;;;3.80;2.77;;;;;;;15.51;63.22;100434.91;1780976;80;21022;-82
2022/06/24 00:20:23;;;;;;;5.62;2.95;;;;;;;15.50;63.41;100433.70;1781200;80;21037;-77
2022/06/24 00:22:53;;;;;;;5.30;2.60;;;;;;;15.47;63.73;100437.84;1781165;80;20991;-82
2022/06/24 00:25:24;;;;;;;2.83;2.60;;;;;;;15.46;63.83;100440.92;1781565;80;21408;-83
2022/06/24 00:28:08;;;;;;;4.37;2.50;;;;;;;15.45;64.00;100437.91;1781197;80;21138;-81
2022/06/24 00:30:44;;;;;;;4.47;3.05;;;;;;;15.46;64.19;100440.92;1767024;80;21261;-82
2022/06/24 00:33:19;;;;;;;4.22;3.00;;;;;;;15.44;64.27;100436.70;1766377;80;21034;-77
2022/06/24 00:35:51;;;;;;;3.87;2.90;;;;;;;15.43;64.33;100433.65;1780902;80;21473;-76
2022/06/24 00:38:28;;;;;;;3.40;2.75;;;;;;;15.40;64.49;100430.71;1773121;80;21524;-76
2022/06/24 00:41:07;;;;;;;3.10;2.80;;;;;;;15.38;64.70;100420.25;1743311;80;21275;-76
2022/06/24 00:43:48;;;;;;;3.43;2.70;;;;;;;15.39;64.91;100423.73;1768317;80;21038;-84
2022/06/24 00:46:26;;;;;;;2.95;2.72;;;;;;;15.41;65.23;100424.51;1737564;80;21017;-76
2022/06/24 00:48:57;;;;;;;5.85;2.98;;;;;;;15.39;65.23;100419.30;1736965;80;21034;-83
2022/06/24 00:51:37;;;;;;;3.17;2.87;;;;;;;15.39;65.54;100420.63;1764454;80;21575;-76
2022/06/24 00:54:14;;;;;;;3.85;3.08;;;;;;;15.33;65.50;100416.17;1767830;80;22002;-77
2022/06/24 00:56:42;;;;;;;5.97;3.33;;;;;;;15.27;65.84;100417.37;1737175;80;21034;-76
2022/06/24 00:59:10;;;;;;;2.92;2.72;;;;;;;15.23;65.67;100418.46;1743855;80;21001;-76
2022/06/24 01:01:41;;;;;;;3.42;3.08;;;;;;;15.15;65.46;100414.08;1758844;80;21102;-76
2022/06/24 01:04:10;;;;;;;5.35;3.60;;;;;;;15.08;65.72;100416.22;1739528;80;21029;-76
2022/06/24 01:06:40;;;;;;;8.73;3.37;;;;;;;15.08;65.98;100418.86;1737305;80;21121;-83
2022/06/24 01:09:08;;;;;;;6.00;3.30;;;;;;;15.10;66.31;100414.35;1768091;80;21053;-76
2022/06/24 01:11:40;;;;;;;3.58;2.95;;;;;;;15.13;66.56;100418.58;1737205;80;21042;-76
2022/06/24 01:14:08;;;;;;;4.80;3.08;;;;;;;15.13;66.54;100411.98;1736851;80;21049;-76
2022/06/24 01:16:36;;;;;;;4.35;3.65;;;;;;;15.08;66.62;100419.33;1737207;80;21093;-76
2022/06/24 01:19:07;;;;;;;3.90;3.25;;;;;;;15.04;66.76;100413.34;1739817;80;21548;-76
2022/06/24 01:21:40;;;;;;;4.20;3.60;;;;;;;14.98;66.96;100417.66;1741464;80;21034;-77
2022/06/24 01:24:15;;;;;;;4.70;3.75;;;;;;;14.93;67.03;100421.85;1741702;80;21503;-76
2022/06/24 01:26:49;;;;;;;3.27;3.00;;;;;;;14.92;67.29;100416.67;1741365;80;20992;-77
2022/06/24 01:29:17;;;;;;;5.08;3.47;;;;;;;14.84;67.25;100409.17;1741402;80;21106;-77
2022/06/24 01:31:48;;;;;;;4.08;3.67;;;;;;;14.77;67.27;100405.63;1741470;80;21998;-82
2022/06/24 01:34:17;;;;;;;6.47;3.40;;;;;;;14.71;67.29;100405.05;1769933;80;21021;-83
2022/06/24 01:36:44;;;;;;;7.67;3.47;;;;;;;14.64;67.27;100401.02;1767815;80;21034;-76
2022/06/24 01:39:12;;;;;;;5.28;3.90;;;;;;;14.58;67.41;100404.00;1771968;80;21041;-76
2022/06/24 01:41:41;;;;;;;4.00;3.60;;;;;;;14.54;67.50;100405.08;1753181;80;21021;-76
2022/06/24 01:44:08;;;;;;;5.42;4.08;;;;;;;14.51;67.54;100401.26;1784617;80;21081;-82
2022/06/24 01:46:35;;;;;;;5.85;3.75;;;;;;;14.50;67.73;100400.41;1747322;80;21074;-81
2022/06/24 01:49:03;;;;;;;5.35;3.80;;;;;;;14.48;67.65;100400.11;1748719;80;21464;-83
2022/06/24 01:51:33;;;;;;;4.25;3.85;;;;;;;14.42;67.62;100396.02;1755122;80;21050;-76
2022/06/24 01:54:00;;;;;;;5.03;4.28;;;;;;;14.39;67.66;100405.41;1757208;80;21052;-77
2022/06/24 01:56:27;;;;;;;5.12;4.08;;;;;;;14.36;67.69;100403.41;1753507;80;21108;-78
2022/06/24 01:58:54;;;;;;;4.67;3.83;;;;;;;14.32;67.67;100400.05;1786199;80;20898;-77
2022/06/24 02:01:21;;;;;;;5.10;4.22;;;;;;;14.29;67.74;100401.06;1781383;80;21056;-76
2022/06/24 02:03:49;;;;;;;6.53;5.00;;;;;;;14.28;67.89;100407.75;1788013;80;21033;-76
2022/06/24 02:06:20;;;;;;;5.62;4.35;;;;;;;14.24;67.85;100400.92;1763043;80;20995;-76
2022/06/24 02:08:47;;;;;;;7.00;5.37;;;;;;;14.24;67.99;100393.89;1741343;80;21139;-80
2022/06/24 02:14:06;;;;;;;6.53;5.28;;;;;;;14.24;68.22;100390.38;1741310;80;21519;-83
2022/06/24 02:16:34;;;;;;;7.12;5.37;;;;;;;14.23;68.34;100395.27;1764586;80;21004;-80
2022/06/24 02:19:02;;;;;;;5.50;5.00;;;;;;;14.24;68.30;100391.69;1773368;80;21301;-80
2022/06/24 02:21:30;;;;;;;5.92;5.22;;;;;;;14.25;68.59;100392.95;1741310;80;21142;-81
2022/06/24 02:23:57;;;;;;;6.83;5.20;;;;;;;14.24;68.50;100390.38;1741481;80;21038;-76
2022/06/24 02:26:25;;;;;;;6.42;4.80;;;;;;;14.20;68.46;100384.42;1758474;80;21056;-76
2022/06/24 02:28:54;;;;;;;6.62;5.33;;;;;;;14.21;68.76;100386.59;1751399;80;20951;-80
2022/06/24 02:31:21;;;;;;;6.35;4.75;;;;;;;14.22;68.74;100390.47;1741367;80;21007;-83
2022/06/24 02:33:48;;;;;;;5.30;4.80;;;;;;;14.20;68.73;100388.38;1741560;80;21131;-76
2022/06/24 02:36:18;;;;;;;6.28;4.20;;;;;;;14.18;68.88;100384.11;1741306;80;21031;-78
2022/06/24 02:38:48;;;;;;;4.97;4.33;;;;;;;14.17;68.91;100384.59;1741797;80;21591;-76
2022/06/24 02:41:16;;;;;;;6.25;4.65;;;;;;;14.16;69.14;100378.06;1751312;80;21029;-84
2022/06/24 02:43:43;;;;;;;5.15;4.70;;;;;;;14.15;69.23;100380.33;1771829;80;21023;-83
2022/06/24 02:46:20;;;;;;;4.67;4.20;;;;;;;14.14;69.34;100384.75;1767979;80;21136;-77
2022/06/24 02:48:44;;;;;;;4.95;4.47;;;;;;;14.13;69.29;100380.86;1771834;80;21070;-77
2022/06/24 02:51:14;;;;;;;5.80;4.22;;;;;;;14.13;69.44;100376.44;1766766;80;21036;-76
2022/06/24 02:53:43;;;;;;;4.90;4.40;;;;;;;14.12;69.48;100381.33;1743132;80;21014;-77
2022/06/24 02:56:13;;;;;;;7.92;4.78;;;;;;;14.11;69.53;100380.95;1764930;80;21112;-83
2022/06/24 02:58:41;;;;;;;;;;;;;;;14.12;69.66;100381.80;1774967;80;21309;-76
2022/06/24 03:01:10;;;;;;;5.20;4.12;;;;;;;14.11;69.94;100389.34;1741548;80;20197;-76
2022/06/24 03:03:37;;;;;;;5.67;4.37;;;;;;;14.09;69.75;100385.92;1741217;80;21086;-77
2022/06/24 03:06:06;;;;;;;5.10;4.60;;;;;;;14.10;69.90;100390.25;1741538;80;20999;-76
2022/06/24 03:08:34;;;;;;;7.70;4.35;;;;;;;14.11;70.02;100384.06;1741399;80;21418;-77
2022/06/24 03:11:02;;;;;;;6.85;4.53;;;;;;;14.11;70.12;100380.95;1741370;80;21145;-79
2022/06/24 03:13:29;;;;;;;5.22;4.33;;;;;;;14.11;70.12;100380.11;1741642;80;21046;-76
2022/06/24 03:15:56;;;;;;;5.28;4.40;;;;;;;14.14;70.48;100382.59;1773793;80;22374;-77
2022/06/24 03:18:26;;;;;;;7.15;4.35;;;;;;;14.19;70.70;100382.73;1739980;80;21034;-77
2022/06/24 03:20:53;;;;;;;4.33;3.92;;;;;;;14.22;70.74;100379.08;1727757;81;21094;-76
2022/06/24 03:23:21;;;;;;;4.70;4.30;;;;;;;14.23;70.86;100378.14;1727566;81;21074;-76
2022/06/24 03:25:48;;;;;;;6.05;4.37;;;;;;;14.26;71.17;100375.34;1735263;81;21018;-76
2022/06/24 03:28:15;;;;;;;6.53;5.20;;;;;;;14.32;71.50;100378.96;1755810;80;21063;-77
2022/06/24 03:30:42;;;;;;;5.70;5.20;;;;;;;14.37;71.56;100382.21;1739297;81;21044;-77
2022/06/24 03:33:10;;;;;;;6.78;4.62;;;;;;;14.39;71.58;100379.03;1732651;81;21018;-76
2022/06/24 03:35:37;;;;;;;5.30;4.80;;;;;;;14.40;71.75;100373.29;1740207;81;21972;-78
2022/06/24 03:38:05;;;;;;;7.60;4.92;;;;;;;14.43;71.83;100369.17;1740165;81;20992;-77
2022/06/24 03:40:32;;;;;;;7.22;5.12;;;;;;;14.46;72.05;100369.00;1732051;81;21457;-76
2022/06/24 03:42:59;;;;;;;4.85;4.42;;;;;;;14.48;72.20;100371.94;1763137;81;21050;-77
2022/06/24 03:45:27;;;;;;;5.12;4.55;;;;;;;14.53;72.11;100377.48;1754829;80;20983;-77
2022/06/24 03:47:54;;;;;;;5.58;4.67;;;;;;;14.56;72.23;100378.16;1727440;81;21220;-78
2022/06/24 03:50:21;;;;;;;5.70;4.65;;;;;;;14.64;72.60;100375.96;1733317;81;21609;-76
2022/06/24 03:52:48;;;;;;;5.58;4.65;;;;;;;14.71;72.46;100375.15;1735542;81;21058;-77
2022/06/24 03:55:15;;;;;;;5.55;4.47;;;;;;;14.79;72.53;100382.17;1727429;81;21106;-80
2022/06/24 03:57:42;;;;;;;5.62;4.30;;;;;;;14.86;72.75;100376.11;1727728;81;21018;-77
2022/06/24 04:00:11;;;;;;;5.60;4.30;;;;;;;14.93;72.60;100376.98;1732953;81;21127;-76
2022/06/24 04:02:38;;;;;;;6.65;4.42;;;;;;;15.01;72.75;100381.84;1757292;81;21538;-77
2022/06/24 04:05:07;;;;;;;5.35;4.85;;;;;;;15.09;73.07;100380.95;1730535;81;21058;-77
2022/06/24 04:07:34;;;;;;;6.33;4.75;;;;;;;15.18;73.22;100383.53;1727662;81;20998;-76
2022/06/24 04:10:02;;;;;;;5.20;4.60;;;;;;;15.29;73.31;100384.25;1741367;81;21021;-77
2022/06/24 04:12:29;;;;;;;5.47;4.55;;;;;;;15.38;73.40;100389.87;1742813;81;21103;-77
2022/06/24 04:15:17;;;;;;;5.92;4.65;;;;;;;15.50;73.35;100379.55;1742975;81;21043;-77
2022/06/24 04:17:49;;;;;;;6.37;4.50;;;;;;;15.58;73.24;100380.80;1727799;81;21046;-77
2022/06/24 04:20:18;;;;;;;5.83;4.45;;;;;;;15.69;72.88;100382.85;1741660;81;21061;-77
2022/06/24 04:22:46;;;;;;;5.72;4.87;;;;;;;15.82;72.70;100385.16;1741043;81;21018;-80
2022/06/24 04:25:14;;;;;;;6.50;4.45;;;;;;;15.95;72.51;100376.01;1755244;81;21123;-76
2022/06/24 04:27:41;;;;;;;6.03;4.53;;;;;;;16.08;72.33;100377.46;1728946;80;21591;-77
2022/06/24 04:30:11;;;;;;;5.75;4.78;;;;;;;16.21;72.15;100374.45;1727379;81;21057;-77
2022/06/24 04:32:39;;;;;;;6.08;3.72;;;;;;;16.34;71.97;100369.73;1727518;81;21031;-78
2022/06/24 04:35:08;;;;;;;4.97;4.20;;;;;;;16.46;71.66;100376.89;1749814;81;20987;-81
2022/06/24 04:37:40;;;;;;;6.50;4.25;;;;;;;16.56;71.43;100369.25;1740435;80;21111;-80
2022/06/24 04:40:12;;;;;;;5.40;3.95;;;;;;;16.67;71.15;100370.27;1756278;80;21054;-81
2022/06/24 04:42:40;;;;;;;9.23;4.58;;;;;;;16.77;70.86;100374.56;1761245;81;21523;-81
2022/06/24 04:45:08;;;;;;;7.10;4.42;;;;;;;16.88;70.58;100372.08;1729962;80;21085;-81
2022/06/24 04:47:35;;;;;;;5.65;4.10;;;;;;;17.02;70.35;100375.65;1739026;81;21088;-81
2022/06/24 04:50:04;;;;;;;5.42;4.47;;;;;;;17.14;70.20;100377.01;1730028;81;21197;-81
2022/06/24 04:52:32;;;;;;;5.62;4.20;;;;;;;17.28;70.05;100375.27;1727876;81;21571;-80
2022/06/24 04:55:00;;;;;;;4.78;3.87;;;;;;;17.42;69.69;100377.02;1727389;81;21046;-81
2022/06/24 04:57:28;;;;;;;6.42;4.40;;;;;;;17.54;69.33;100374.41;1727610;81;20942;-81
2022/06/24 04:59:55;;;;;;;5.30;4.05;;;;;;;17.69;68.95;100375.18;1758312;81;20998;-81
2022/06/24 05:02:22;;;;;;;4.90;4.12;;;;;;;17.83;68.64;100372.95;1727881;81;21100;-81
2022/06/24 05:04:49;;;;;;;6.90;4.67;;;;;;;17.97;68.39;100370.21;1727480;81;21118;-80
2022/06/24 05:07:17;;;;;;;7.95;4.08;;;;;;;18.14;68.10;100373.52;1733167;81;21029;-79
2022/06/24 05:09:46;;;;;;;6.47;4.17;;;;;;;18.24;67.60;100370.13;1736465;81;21050;-81
2022/06/24 05:12:13;;;;;;;6.22;3.98;;;;;;;18.38;67.15;100376.28;1742122;81;21085;-81
2022/06/24 05:14:41;;;;;;;8.08;3.85;;;;;;;18.48;66.83;100368.89;1727801;81;21107;-78
2022/06/24 05:17:08;;;;;;;4.95;4.10;;;;;;;18.60;66.58;100363.18;1727507;81;21041;-90
2022/06/24 05:19:35;;;;;;;8.18;4.10;;;;;;;18.72;66.37;100366.77;1731994;81;21019;-85
2022/06/24 05:22:02;;;;;;;4.60;3.80;;;;;;;18.83;65.96;100364.22;1741461;80;21560;-81
2022/06/24 05:24:30;;;;;;;7.92;4.08;;;;;;;18.95;65.63;100366.45;1741561;80;21046;-83
2022/06/24 05:27:20;;;;;;;6.37;3.85;;;;;;;19.06;65.11;100356.38;1767508;80;21819;-83
2022/06/24 05:29:39;;;;;;;6.45;4.00;;;;;;;19.15;64.83;100358.38;1751073;80;21604;-81
2022/06/24 05:32:07;;;;;;;4.47;3.50;;;;;;;19.27;64.47;100354.81;1741519;80;20995;-81
2022/06/24 05:34:34;;;;;;;4.83;3.58;;;;;;;19.41;64.24;100359.59;1769309;80;22388;-81
2022/06/24 05:37:02;;;;;;;8.95;3.75;;;;;;;19.51;63.82;100356.58;1741431;80;21438;-79
2022/06/24 05:39:31;;;;;;;6.92;3.58;;;;;;;19.60;63.57;100354.58;1749902;80;21185;-79
2022/06/24 05:41:59;;;;;;;7.90;3.63;;;;;;;19.71;63.31;100351.98;1785422;80;21081;-80
2022/06/24 05:44:26;;;;;;;4.62;3.62;;;;;;;19.81;63.12;100349.00;1788756;80;20975;-83
2022/06/24 05:46:54;;;;;;;6.25;4.00;;;;;;;19.91;62.77;100348.28;1742982;80;21026;-84
2022/06/24 05:49:22;;;;;;;7.58;3.58;;;;;;;20.01;62.48;100343.96;1741402;80;21022;-82
2022/06/24 05:51:49;;;;;;;5.40;3.80;;;;;;;20.11;62.29;100347.58;1776940;80;21134;-79
2022/06/24 05:57:02;;;;;;;4.65;3.37;;;;;;;20.31;61.37;100343.84;1753498;80;21050;-75
2022/06/24 05:59:29;;;;;;;5.05;3.27;;;;;;;20.43;61.25;100341.56;1775905;80;21074;-79
2022/06/24 06:01:56;;;;;;;7.70;3.77;;;;;;;20.52;60.88;100337.32;1779932;78;20994;-78
2022/06/24 06:04:24;;;;;;;8.40;3.10;;;;;;;20.63;60.68;100333.34;1774636;78;21282;-77
2022/06/24 06:06:52;;;;;;;5.22;3.00;;;;;;;20.75;60.42;100325.69;1786241;80;20993;-77
2022/06/24 06:09:19;;;;;;;3.95;3.25;;;;;;;20.87;60.02;100322.53;1783128;78;21161;-78
2022/06/24 06:11:47;;;;;;;4.00;2.87;;;;;;;21.01;59.72;100322.25;1786865;78;21010;-78
2022/06/24 06:14:14;;;;;;;4.92;3.20;;;;;;;21.10;59.39;100317.98;1782794;78;21445;-78
2022/06/24 06:16:42;;;;;;;5.47;2.92;;;;;;;21.20;59.28;100315.37;1728927;82;21322;-78
2022/06/24 06:19:09;;;;;;;4.58;3.00;;;;;;;21.35;58.95;100318.96;1733979;81;21020;-78
2022/06/24 06:21:37;;;;;;;5.12;2.95;;;;;;;21.49;58.67;100322.33;1729704;81;21533;-78
2022/06/24 06:24:05;;;;;;;5.87;3.17;;;;;;;21.56;58.34;100320.36;1730077;81;21000;-79
2022/06/24 06:26:32;;;;;;;7.40;3.10;;;;;;;21.66;58.06;100321.74;1742286;81;21001;-79
2022/06/24 06:28:59;;;;;;;5.45;2.58;;;;;;;21.80;57.69;100321.91;1736325;82;21125;-74
2022/06/24 06:31:26;;;;;;;5.45;2.77;;;;;;;21.97;57.08;100319.13;1738880;81;21037;-74
2022/06/24 06:33:54;;;;;;;4.03;2.77;;;;;;;22.12;56.56;100316.47;1728147;82;21618;-74
2022/06/24 06:36:21;;;;;;;3.95;2.90;;;;;;;22.23;56.26;100315.58;1741294;81;21032;-73
2022/06/24 06:38:48;;;;;;;3.85;2.65;;;;;;;22.36;56.00;100316.16;1706555;81;21038;-76
2022/06/24 06:41:21;;;;;;;5.72;2.98;;;;;;;22.45;55.61;100310.03;1746824;81;21519;-79
2022/06/24 06:43:45;;;;;;;4.92;2.55;;;;;;;22.55;55.32;100303.87;1752012;81;21056;-76
2022/06/24 06:46:12;;;;;;;5.20;2.92;;;;;;;22.64;54.89;100300.37;1743283;81;21004;-73
2022/06/24 06:48:40;;;;;;;3.75;2.80;;;;;;;22.80;54.71;100309.20;1710067;82;21023;-73
2022/06/24 06:51:07;;;;;;;4.85;2.67;;;;;;;22.93;54.25;100315.98;1706074;82;21054;-73
2022/06/24 06:53:34;;;;;;;17.15;4.05;;;;;;;23.03;53.48;100309.35;1721404;81;21099;-77
2022/06/24 06:56:02;;;;;;;4.65;2.62;;;;;;;23.14;53.15;100301.66;1740987;82;21022;-77
2022/06/24 06:58:29;;;;;;;4.20;2.20;;;;;;;23.26;53.11;100302.39;1741448;82;21677;-73
2022/06/24 07:00:56;;;;;;;10.68;2.58;;;;;;;23.38;52.48;100300.75;1735805;82;21046;-73
2022/06/24 07:03:27;;;;;;;5.75;2.52;;;;;;;23.50;51.72;100293.44;1721027;82;21034;-73
2022/06/24 07:05:54;;;;;;;4.30;2.15;;;;;;;23.56;50.84;100295.53;1741157;82;21123;-73
2022/06/24 07:08:23;;;;;;;3.15;1.98;;;;;;;23.62;50.36;100291.94;1741474;82;21515;-73
2022/06/24 07:10:50;;;;;;;4.87;2.05;;;;;;;23.72;49.80;100293.64;1740052;82;21001;-77
2022/06/24 07:13:19;;;;;;;4.35;1.87;;;;;;;23.76;49.34;100287.00;1740337;82;21567;-73
2022/06/24 07:15:46;;;;;;;5.55;2.58;;;;;;;23.84;48.83;100290.80;1719843;81;21540;-73
2022/06/24 07:18:13;;;;;;;3.27;2.10;;;;;;;23.87;48.27;100279.30;1741288;82;21140;-76
2022/06/24 07:20:44;;;;;;;2.98;2.10;;;;;;;23.92;47.83;100285.56;1738824;82;21015;-76
2022/06/24 07:23:11;;;;;;;5.90;2.05;;;;;;;23.91;47.50;100286.03;1728145;82;21702;-73
2022/06/24 07:25:38;;;;;;;4.40;2.27;;;;;;;23.95;47.18;100282.59;1736563;82;21652;-74
2022/06/24 07:28:06;;;;;;;5.08;2.10;;;;;;;23.94;46.85;100279.55;1732087;82;21090;-73
2022/06/24 07:30:34;;;;;;;3.87;2.20;;;;;;;23.97;47.10;100269.88;1728456;82;21211;-73
2022/06/24 07:33:01;;;;;;;5.83;1.98;;;;;;;24.12;47.23;100267.09;1726110;81;21466;-73
2022/06/24 07:35:29;;;;;;;4.45;2.20;;;;;;;24.29;46.77;100269.98;1717808;82;21334;-74
2022/06/24 07:37:56;;;;;;;2.92;1.98;;;;;;;24.38;46.52;100261.88;1720122;81;20999;-74
2022/06/24 07:40:25;;;;;;;4.90;2.15;;;;;;;24.52;46.37;100259.22;1722366;82;21061;-74
2022/06/24 07:42:52;;;;;;;3.90;2.00;;;;;;;24.66;46.28;100254.68;1727973;81;21140;-77
2022/06/24 07:45:19;;;;;;;5.80;2.00;;;;;;;24.78;45.73;100258.52;1728384;82;21038;-73
2022/06/24 07:47:48;;;;;;;4.95;1.95;;;;;;;24.84;45.05;100259.23;1736904;82;21058;-74
2022/06/24 07:50:15;;;;;;;3.72;2.10;;;;;;;24.82;44.74;100249.99;1725615;82;21032;-76
2022/06/24 07:52:43;;;;;;;5.37;1.92;;;;;;;24.85;44.68;100253.70;1714259;82;21083;-74
2022/06/24 07:57:56;;;;;;;6.87;1.90;;;;;;;25.07;44.36;100244.36;1707462;82;21070;-73
2022/06/24 08:00:23;;;;;;;3.72;2.10;;;;;;;25.24;44.14;100239.16;1707010;82;21128;-74
2022/06/24 08:02:50;;;;;;;6.70;1.90;;;;;;;25.35;43.94;100242.44;1707480;82;21008;-73
2022/06/24 08:05:17;;;;;;;4.47;2.25;;;;;;;25.52;43.65;100239.39;1707146;82;21737;-74
2022/06/24 08:07:45;;;;;;;3.12;1.87;;;;;;;25.64;43.34;100236.45;1707385;82;21112;-73
2022/06/24 08:10:13;;;;;;;4.35;2.10;;;;;;;25.75;43.13;100234.83;1727885;82;21448;-74
2022/06/24 08:12:40;;;;;;;3.87;2.37;;;;;;;25.83;42.62;100224.17;1707514;82;21052;-74
2022/06/24 08:15:08;;;;;;;3.12;2.02;;;;;;;25.93;42.39;100221.35;1707195;82;21055;-74
2022/06/24 08:17:35;;;;;;;4.50;1.85;;;;;;;25.98;41.91;100225.23;1707456;82;21098;-74
2022/06/24 08:20:05;;;;;;;4.37;1.75;;;;;;;25.97;41.31;100216.85;1725184;82;21207;-74
2022/06/24 08:22:32;;;;;;;3.12;1.80;;;;;;;25.95;41.48;100218.84;1713205;82;21040;-73
2022/06/24 08:25:01;;;;;;;2.98;2.00;;;;;;;26.03;41.00;100214.86;1724816;82;21568;-74
2022/06/24 08:27:28;;;;;;;8.68;2.12;;;;;;;26.11;40.87;100210.03;1709717;82;21486;-73
2022/06/24 08:29:56;;;;;;;3.20;1.95;;;;;;;26.24;41.07;100214.45;1715658;82;21041;-74
2022/06/24 08:32:23;;;;;;;3.83;2.00;;;;;;;26.37;40.81;100203.22;1724941;82;21198;-75
2022/06/24 08:34:51;;;;;;;5.05;2.15;;;;;;;26.52;40.81;100210.67;1717699;82;21509;-74
2022/06/24 08:37:18;;;;;;;5.60;1.75;;;;;;;26.64;40.83;100212.05;1707118;82;21534;-73
2022/06/24 08:39:45;;;;;;;4.70;2.50;;;;;;;26.81;40.52;100200.30;1707307;82;21049;-74
2022/06/24 08:42:13;;;;;;;3.72;1.87;;;;;;;26.94;40.24;100206.54;1720040;82;21503;-73
2022/06/24 08:44:41;;;;;;;5.47;2.00;;;;;;;27.10;40.20;100190.88;1714334;82;21144;-74
2022/06/24 08:47:15;;;;;;;3.37;1.95;;;;;;;27.21;39.76;100194.60;1707370;82;22318;-74
2022/06/24 08:49:42;;;;;;;12.13;1.72;;;;;;;27.30;39.60;100190.91;1707278;82;21564;-76
2022/06/24 08:52:12;;;;;;;5.33;1.87;;;;;;;27.41;39.30;100187.51;1707483;82;21043;-74
2022/06/24 08:54:46;;;;;;;3.33;1.57;;;;;;;27.49;38.70;100187.02;1707149;82;21078;-74
2022/06/24 08:57:13;;;;;;;4.78;2.10;;;;;;;27.52;38.79;100182.63;1707464;82;21130;-74
2022/06/24 08:59:42;;;;;;;3.75;1.77;;;;;;;27.59;38.50;100185.45;1704962;82;20911;-73
2022/06/24 09:02:15;;;;;;;2.27;1.90;;;;;;;27.68;38.32;100183.58;1708883;82;21114;-75
2022/06/24 09:04:43;;;;;;;2.50;1.70;;;;;;;27.76;38.16;100179.00;1706485;82;21010;-77
2022/06/24 09:07:27;;;;;;;3.30;2.10;;;;;;;27.82;37.83;100180.19;1707634;82;21007;-73
2022/06/24 09:10:04;;;;;;;6.12;2.27;;;;;;;27.85;37.42;100175.80;1707137;82;21545;-74
2022/06/24 09:12:40;;;;;;;2.37;1.80;;;;;;;27.85;37.50;100177.14;1719511;82;21068;-74
2022/06/24 09:15:11;;;;;;;5.87;1.90;;;;;;;27.98;37.62;100173.39;1707078;82;20999;-73
2022/06/24 09:17:39;;;;;;;4.05;1.98;;;;;;;28.09;37.15;100168.12;1706427;82;21042;-73
2022/06/24 09:20:16;;;;;;;6.33;1.72;;;;;;;28.17;37.11;100173.98;1707259;82;21506;-82
2022/06/24 09:22:45;;;;;;;4.67;1.90;;;;;;;28.26;37.26;100181.00;1727298;82;21132;-74
2022/06/24 09:25:12;;;;;;;3.05;1.80;;;;;;;28.28;36.59;100178.14;1707384;82;20994;-74
2022/06/24 09:27:46;;;;;;;3.95;1.77;;;;;;;28.33;36.33;100179.28;1711395;82;21623;-73
2022/06/24 09:30:16;;;;;;;4.37;1.90;;;;;;;28.29;35.82;100173.07;1714437;82;21059;-74
2022/06/24 09:32:52;;;;;;;2.12;1.80;;;;;;;28.35;36.15;100179.95;1723669;82;21143;-76
2022/06/24 09:35:22;;;;;;;2.62;1.57;;;;;;;28.48;36.33;100179.38;1731650;82;21410;-74
2022/06/24 09:37:52;;;;;;;4.28;1.80;;;;;;;28.62;36.04;100168.33;1681866;82;21087;-74
2022/06/24 09:40:30;;;;;;;2.67;1.67;;;;;;;28.74;35.84;100170.09;1678566;84;21049;-74
2022/06/24 09:43:04;;;;;;;4.70;1.85;;;;;;;28.79;35.78;100158.26;1707741;82;21061;-74
2022/06/24 09:45:52;;;;;;;3.75;1.70;;;;;;;28.92;36.08;100159.84;1732016;82;21017;-74
2022/06/24 09:48:34;;;;;;;2.92;1.52;;;;;;;29.08;35.83;100150.80;1709873;82;21141;-74
2022/06/24 09:51:04;;;;;;;3.12;1.90;;;;;;;29.25;35.45;100153.66;1707453;82;21039;-74
2022/06/24 09:53:40;;;;;;;4.40;1.75;;;;;;;29.32;35.15;100160.48;1707247;82;21071;-74
2022/06/24 09:56:10;;;;;;;6.55;1.67;;;;;;;29.39;34.99;100147.94;1707573;82;21058;-73
2022/06/24 09:58:42;;;;;;;3.92;1.85;;;;;;;29.45;34.75;100147.19;1707260;82;21046;-74
2022/06/24 10:01:10;;;;;;;3.15;1.60;;;;;;;29.55;34.82;100142.88;1707432;82;21413;-77
2022/06/24 10:03:39;;;;;;;4.33;1.75;;;;;;;29.63;34.47;100137.90;1719522;82;21055;-73
2022/06/24 10:06:09;;;;;;;2.85;1.45;;;;;;;29.68;34.17;100145.80;1707495;82;21016;-74
2022/06/24 10:08:37;;;;;;;3.42;1.90;;;;;;;29.72;33.95;100133.58;1707217;82;21027;-74
2022/06/24 10:11:11;;;;;;;2.27;1.62;;;;;;;29.84;34.09;100137.15;1707471;82;21008;-74
2022/06/24 10:13:38;;;;;;;3.52;1.82;;;;;;;29.92;33.61;100130.28;1719556;82;21978;-74
2022/06/24 10:16:07;;;;;;;3.45;1.90;;;;;;;29.96;33.38;100137.84;1718549;82;21039;-74
2022/06/24 10:18:42;;;;;;;2.15;1.52;;;;;;;29.97;32.99;100129.21;1715976;82;21066;-74
2022/06/24 10:21:12;;;;;;;3.72;1.70;;;;;;;29.99;33.01;100121.23;1703906;82;21606;-75
2022/06/24 10:23:49;;;;;;;3.45;1.70;;;;;;;30.17;33.09;100135.67;1675547;85;21126;-74
2022/06/24 10:26:34;;;;;;;2.00;1.77;;;;;;;30.31;32.93;100133.15;1688317;82;22009;-74
2022/06/24 10:29:07;;;;;;;2.83;1.65;;;;;;;30.42;32.60;100116.41;1682517;82;21068;-73
2022/06/24 10:31:49;;;;;;;4.78;1.90;;;;;;;30.48;32.56;100118.34;1677312;84;21067;-74
2022/06/24 10:34:36;;;;;;;4.08;1.87;;;;;;;30.61;32.50;100113.05;1694312;83;21532;-73
2022/06/24 10:37:16;;;;;;;3.27;1.67;;;;;;;30.80;32.28;100110.23;1674901;85;21056;-74
2022/06/24 10:39:51;;;;;;;2.45;1.45;;;;;;;31.01;32.08;100094.97;1714211;83;21133;-74
2022/06/24 10:42:22;;;;;;;2.77;1.60;;;;;;;31.31;32.15;100095.59;1691150;82;21013;-75
2022/06/24 10:45:02;;;;;;;4.80;1.67;;;;;;;31.60;31.62;100092.35;1694383;82;21088;-74
2022/06/24 10:47:37;;;;;;;6.83;2.05;;;;;;;31.87;31.36;100102.25;1700540;83;21570;-78
2022/06/24 10:50:14;;;;;;;4.17;1.70;;;;;;;32.25;30.89;100107.16;1695909;83;21056;-73
2022/06/24 10:52:55;;;;;;;2.05;1.20;;;;;;;32.57;30.23;100097.45;1651064;86;21139;-79
2022/06/24 10:55:29;;;;;;;1.45;1.20;;;;;;;32.78;29.98;100097.73;1648704;85;21076;-72
2022/06/24 10:58:06;;;;;;;2.75;1.55;;;;;;;33.02;29.58;100078.66;1694352;83;21019;-72
2022/06/24 11:00:51;;;;;;;2.35;1.40;;;;;;;33.36;29.45;100090.27;1694475;84;21039;-72
2022/06/24 11:03:32;;;;;;;3.65;1.60;;;;;;;33.53;29.08;100088.80;1694513;83;21046;-78
2022/06/24 11:06:00;;;;;;;1.50;1.40;;;;;;;33.61;28.63;100080.91;1701397;83;21106;-72
2022/06/24 11:08:28;;;;;;;5.37;1.70;;;;;;;33.83;28.57;100081.44;1675950;85;21588;-76
2022/06/24 11:10:56;;;;;;;3.87;1.57;;;;;;;33.99;28.31;100077.38;1677724;85;21048;-72
2022/06/24 11:13:24;;;;;;;3.70;1.45;;;;;;;34.13;28.27;100066.76;1677372;85;21050;-74
2022/06/24 11:15:56;;;;;;;4.92;1.50;;;;;;;34.27;27.88;100067.50;1694774;83;21121;-81
2022/06/24 11:18:27;;;;;;;3.83;1.50;;;;;;;34.34;27.40;100056.05;1683499;84;21130;-72
2022/06/24 11:21:02;;;;;;;7.90;1.65;;;;;;;34.47;27.46;100051.55;1694394;83;21068;-72
2022/06/24 11:23:37;;;;;;;4.20;1.40;;;;;;;34.47;27.22;100064.63;1710008;83;21061;-72
2022/06/24 11:26:18;;;;;;;3.98;1.95;;;;;;;34.41;26.87;100064.16;1694211;83;21006;-72
2022/06/24 11:28:52;;;;;;;1.80;1.42;;;;;;;34.47;26.79;100052.91;1715871;82;21036;-73
2022/06/24 11:31:23;;;;;;;5.78;1.50;;;;;;;34.59;26.74;100053.37;1720538;80;21524;-73
2022/06/24 11:34:04;;;;;;;3.55;1.47;;;;;;;34.80;26.46;100048.03;1736719;82;20968;-72
2022/06/24 11:36:34;;;;;;;3.12;1.70;;;;;;;34.91;26.21;100044.27;1736783;82;21444;-72
2022/06/24 11:39:07;;;;;;;4.42;1.35;;;;;;;34.97;26.51;100033.83;1736727;81;21003;-72
2022/06/24 11:41:38;;;;;;;3.45;1.30;;;;;;;34.99;26.34;100034.45;1736752;82;21593;-72
2022/06/24 11:44:06;;;;;;;5.35;1.75;;;;;;;35.02;26.10;100052.52;1736609;82;21213;-73